createdAt,value
2022-08-09T00:02:03.300Z,3.00
2022-08-09T00:04:36.898Z,3.40
2022-08-09T00:07:12.984Z,2.95
2022-08-09T00:09:46.328Z,3.02
2022-08-09T00:12:24.439Z,3.05
2022-08-09T00:14:58.407Z,3.30
2022-08-09T00:21:19.012Z,3.55
2022-08-09T00:24:07.748Z,3.65
2022-08-09T00:26:42.683Z,3.12
2022-08-09T00:30:16.179Z,2.72
2022-08-09T00:31:59.893Z,3.08
2022-08-09T00:34:27.175Z,2.92
2022-08-09T00:37:02.254Z,3.85
2022-08-09T00:40:13.899Z,3.00
2022-08-09T00:44:13.074Z,2.72
2022-08-09T00:44:46.940Z,2.83
2022-08-09T00:47:20.442Z,2.58
2022-08-09T00:49:56.505Z,2.77
2022-08-09T00:52:32.452Z,2.83
2022-08-09T00:55:08.098Z,3.30
2022-08-09T00:57:43.023Z,3.05
2022-08-09T01:00:23.657Z,2.87
2022-08-09T01:02:58.299Z,3.08
2022-08-09T01:05:51.069Z,3.20
2022-08-09T01:08:13.810Z,2.80
2022-08-09T01:10:55.245Z,2.80
2022-08-09T01:13:41.728Z,3.05
2022-08-09T01:16:10.469Z,3.35
2022-08-09T01:21:24.870Z,4.03
2022-08-09T01:24:05.347Z,2.98
2022-08-09T01:27:00.496Z,3.75
2022-08-09T01:29:55.191Z,4.30
2022-08-09T01:32:31.281Z,2.75
2022-08-09T01:34:51.489Z,3.37
2022-08-09T01:38:06.440Z,3.42
2022-08-09T01:40:04.362Z,3.70
2022-08-09T01:42:38.435Z,4.00
2022-08-09T01:45:13.789Z,4.00
2022-08-09T01:47:49.737Z,3.33
2022-08-09T01:50:28.984Z,3.12
2022-08-09T01:53:01.985Z,3.20
2022-08-09T01:55:38.811Z,3.15
2022-08-09T01:58:14.404Z,2.83
2022-08-09T02:00:50.967Z,2.70
2022-08-09T02:03:27.203Z,2.90
2022-08-09T02:06:06.449Z,3.10
2022-08-09T02:08:57.717Z,2.50
2022-08-09T02:11:17.084Z,2.67
2022-08-09T02:16:33.625Z,2.47
2022-08-09T02:19:02.001Z,2.65
2022-08-09T02:21:38.329Z,2.58
2022-08-09T02:26:50.593Z,1.95
2022-08-09T02:32:18.819Z,2.25
2022-08-09T02:34:57.702Z,2.35
2022-08-09T02:37:36.677Z,2.10
2022-08-09T02:40:12.838Z,2.08
2022-08-09T02:42:51.218Z,2.67
2022-08-09T02:45:29.620Z,1.77
2022-08-09T02:48:06.196Z,2.33
2022-08-09T02:50:43.544Z,2.10
2022-08-09T02:53:26.670Z,2.35
2022-08-09T02:56:01.028Z,2.90
2022-08-09T02:58:38.050Z,1.77
2022-08-09T03:01:15.304Z,2.20
2022-08-09T03:04:17.538Z,2.87
2022-08-09T03:06:27.249Z,2.62
2022-08-09T03:09:03.157Z,2.47
2022-08-09T03:12:06.287Z,2.02
2022-08-09T03:14:15.924Z,2.27
2022-08-09T03:16:50.048Z,1.90
2022-08-09T03:22:25.724Z,2.20
2022-08-09T03:24:52.178Z,2.22
2022-08-09T03:27:24.831Z,1.90
2022-08-09T03:30:01.383Z,2.20
2022-08-09T03:32:38.403Z,2.77
2022-08-09T03:35:24.265Z,4.60
2022-08-09T03:37:56.706Z,3.00
2022-08-09T03:40:24.705Z,2.35
2022-08-09T03:42:57.852Z,2.60
2022-08-09T03:48:12.626Z,1.90
2022-08-09T03:50:48.502Z,1.72
2022-08-09T03:53:23.962Z,2.20
2022-08-09T03:55:58.923Z,2.17
2022-08-09T03:58:32.098Z,2.30
2022-08-09T04:01:07.222Z,2.70
2022-08-09T04:04:01.359Z,1.90
2022-08-09T04:06:16.172Z,1.60
2022-08-09T04:08:49.925Z,1.72
2022-08-09T04:11:24.997Z,1.67
2022-08-09T04:15:00.656Z,1.42
2022-08-09T04:16:33.071Z,2.25
2022-08-09T04:19:11.171Z,2.05
2022-08-09T04:21:41.369Z,2.00
2022-08-09T04:24:15.066Z,1.87
2022-08-09T04:26:48.101Z,1.77
2022-08-09T04:29:22.560Z,2.20
2022-08-09T04:31:58.643Z,2.00
2022-08-09T04:34:36.397Z,1.42
2022-08-09T04:37:17.523Z,1.60
2022-08-09T04:39:52.471Z,1.80
2022-08-09T04:42:33.991Z,1.45
2022-08-09T04:45:08.935Z,1.60
2022-08-09T04:47:58.726Z,1.57
2022-08-09T04:50:16.862Z,1.90
2022-08-09T04:52:53.137Z,1.60
2022-08-09T04:55:26.740Z,1.70
2022-08-09T04:58:01.907Z,1.40
2022-08-09T05:00:36.764Z,1.50
2022-08-09T05:03:30.248Z,1.67
2022-08-09T05:05:51.741Z,1.50
2022-08-09T05:08:22.713Z,1.30
2022-08-09T05:10:57.626Z,1.47
2022-08-09T05:13:32.902Z,1.55
2022-08-09T05:16:08.485Z,1.40
2022-08-09T05:18:59.286Z,1.25
2022-08-09T05:21:22.983Z,1.57
2022-08-09T05:24:00.647Z,1.40
2022-08-09T05:26:46.098Z,1.50
2022-08-09T05:29:17.415Z,1.17
2022-08-09T05:32:05.980Z,1.37
2022-08-09T05:34:39.048Z,2.08
2022-08-09T05:37:13.971Z,1.10
2022-08-09T05:39:47.227Z,1.47
2022-08-09T05:42:27.867Z,1.10
2022-08-09T05:44:57.013Z,0.95
2022-08-09T05:47:33.094Z,1.35
2022-08-09T05:50:30.097Z,1.65
2022-08-09T05:52:53.429Z,1.20
2022-08-09T05:55:25.191Z,1.20
2022-08-09T05:57:58.845Z,1.45
2022-08-09T06:00:37.431Z,0.72
2022-08-09T06:03:11.170Z,1.10
2022-08-09T06:05:50.241Z,0.80
2022-08-09T06:08:24.388Z,1.30
2022-08-09T06:11:00.621Z,1.02
2022-08-09T06:13:44.855Z,1.32
2022-08-09T06:16:38.670Z,2.00
2022-08-09T06:23:57.874Z,1.10
2022-08-09T06:26:34.416Z,1.17
2022-08-09T06:29:15.819Z,1.70
2022-08-09T06:34:53.205Z,1.55
2022-08-09T06:40:27.264Z,1.05
2022-08-09T06:43:07.669Z,1.12
2022-08-09T06:46:04.970Z,1.07
2022-08-09T06:48:36.698Z,1.27
2022-08-09T06:51:15.775Z,1.02
2022-08-09T06:53:52.084Z,1.10
2022-08-09T06:56:46.189Z,0.93
2022-08-09T07:00:48.790Z,1.05
2022-08-09T07:02:20.080Z,0.60
2022-08-09T07:04:57.018Z,1.82
2022-08-09T07:08:00.932Z,0.88
2022-08-09T07:10:22.474Z,0.90
2022-08-09T07:12:44.842Z,0.82
2022-08-09T07:15:53.785Z,0.80
2022-08-09T07:20:43.458Z,0.80
2022-08-09T07:23:18.689Z,0.60
2022-08-09T07:26:02.313Z,1.00
2022-08-09T07:28:29.195Z,0.60
2022-08-09T07:31:04.172Z,0.80
2022-08-09T07:33:52.920Z,0.60
2022-08-09T07:36:15.071Z,0.60
2022-08-09T07:38:58.353Z,0.85
2022-08-09T07:41:25.163Z,0.70
2022-08-09T07:43:59.892Z,1.00
2022-08-09T07:46:37.972Z,0.90
2022-08-09T07:49:16.799Z,1.25
2022-08-09T07:52:05.749Z,0.93
2022-08-09T07:54:30.852Z,0.70
2022-08-09T07:57:11.880Z,0.90
2022-08-09T07:59:52.227Z,0.75
2022-08-09T08:02:20.251Z,1.15
2022-08-09T08:04:53.849Z,0.85
2022-08-09T08:08:43.231Z,0.70
2022-08-09T08:10:08.816Z,0.60
2022-08-09T08:12:50.331Z,0.85
2022-08-09T08:16:29.799Z,1.00
2022-08-09T08:18:53.756Z,1.00
2022-08-09T08:21:39.479Z,0.78
2022-08-09T08:30:55.258Z,0.62
2022-08-09T08:33:49.527Z,0.85
2022-08-09T08:36:12.020Z,0.90
2022-08-09T08:38:49.632Z,1.15
2022-08-09T08:41:23.672Z,0.80
2022-08-09T08:44:04.431Z,0.78
2022-08-09T08:53:15.916Z,0.83
2022-08-09T08:58:44.440Z,0.70
2022-08-09T09:01:25.131Z,0.85
2022-08-09T09:04:00.228Z,0.90
2022-08-09T09:06:57.449Z,0.65
2022-08-09T09:09:58.029Z,0.53
2022-08-09T09:12:18.535Z,0.80
2022-08-09T09:14:55.614Z,0.80
2022-08-09T09:17:46.448Z,0.65
2022-08-09T09:20:06.691Z,1.10
2022-08-09T09:23:01.706Z,0.82
2022-08-09T09:26:04.056Z,1.00
2022-08-09T09:29:02.783Z,0.80
2022-08-09T09:34:25.307Z,0.70
2022-08-09T09:37:01.801Z,0.80
2022-08-09T09:39:54.658Z,0.80
2022-08-09T09:42:32.684Z,0.70
2022-08-09T09:48:12.012Z,1.00
2022-08-09T09:50:50.896Z,0.98
2022-08-09T09:53:34.423Z,0.68
2022-08-09T09:56:30.945Z,0.75
2022-08-09T09:58:53.511Z,0.85
2022-08-09T10:01:31.229Z,0.90
2022-08-09T10:04:09.921Z,1.02
2022-08-09T10:06:51.961Z,0.80
2022-08-09T10:09:24.395Z,0.60
2022-08-09T10:12:12.102Z,1.00
2022-08-09T10:14:39.754Z,0.60
2022-08-09T10:23:03.140Z,0.75
2022-08-09T10:26:06.007Z,0.57
2022-08-09T10:28:11.129Z,0.70
2022-08-09T10:32:20.933Z,0.57
2022-08-09T10:34:07.880Z,0.40
2022-08-09T10:36:11.525Z,0.30
2022-08-09T10:38:56.103Z,0.62
2022-08-09T10:41:22.678Z,0.60
2022-08-09T10:44:01.868Z,0.70
2022-08-09T10:46:57.588Z,0.57
2022-08-09T10:49:49.709Z,0.50
2022-08-09T10:52:13.612Z,0.55
2022-08-09T10:54:53.298Z,0.72
2022-08-09T10:57:37.680Z,0.42
2022-08-09T11:00:36.011Z,0.50
2022-08-09T11:03:49.766Z,0.60
2022-08-09T11:06:28.587Z,0.57
2022-08-09T11:09:15.780Z,0.35
2022-08-09T11:12:21.292Z,0.57
2022-08-09T11:15:02.359Z,0.60
2022-08-09T11:18:02.764Z,0.70
2022-08-09T11:20:56.981Z,0.45
2022-08-09T11:23:55.316Z,0.50
2022-08-09T11:26:52.218Z,0.80
2022-08-09T11:30:05.822Z,0.75
2022-08-09T11:35:47.272Z,0.80
2022-08-09T11:38:22.397Z,0.55
2022-08-09T11:40:57.055Z,0.80
2022-08-09T11:43:45.671Z,0.78
2022-08-09T11:46:33.087Z,0.60
2022-08-09T11:48:58.157Z,0.60
2022-08-09T11:53:00.758Z,0.77
2022-08-09T11:54:28.927Z,0.70
2022-08-09T11:59:37.993Z,0.60
2022-08-09T12:02:18.263Z,0.50
2022-08-09T12:04:58.126Z,0.90
2022-08-09T12:07:41.666Z,0.80
2022-08-09T12:10:07.724Z,0.88
2022-08-09T12:12:52.958Z,1.07
2022-08-09T12:15:48.566Z,0.70
2022-08-09T12:18:03.190Z,0.93
2022-08-09T12:20:38.186Z,0.70
2022-08-09T12:23:13.003Z,0.60
2022-08-09T12:25:54.572Z,1.02
2022-08-09T12:29:09.804Z,0.40
2022-08-09T12:31:58.510Z,0.70
2022-08-09T12:34:01.997Z,0.62
2022-08-09T12:36:38.422Z,0.80
2022-08-09T12:39:17.746Z,0.65
2022-08-09T12:41:53.882Z,0.70
2022-08-09T12:44:28.930Z,0.40
2022-08-09T12:47:04.802Z,0.60
2022-08-09T12:49:39.394Z,0.82
2022-08-09T12:52:18.305Z,1.27
2022-08-09T12:56:12.209Z,0.93
2022-08-09T12:57:43.093Z,0.70
2022-08-09T13:03:20.666Z,0.60
2022-08-09T13:06:10.729Z,0.70
2022-08-09T13:08:35.406Z,0.90
2022-08-09T13:11:13.280Z,0.63
2022-08-09T13:14:37.305Z,0.72
2022-08-09T13:16:17.615Z,0.70
2022-08-09T13:18:54.326Z,1.30
2022-08-09T13:22:38.180Z,0.60
2022-08-09T13:24:44.903Z,1.17
2022-08-09T13:26:49.859Z,0.80
2022-08-09T13:29:28.561Z,0.57
2022-08-09T13:32:17.562Z,0.93
2022-08-09T13:34:43.093Z,0.72
2022-08-09T13:37:50.868Z,0.57
2022-08-09T13:41:51.801Z,1.12
2022-08-09T13:42:29.083Z,1.20
2022-08-09T13:45:12.201Z,1.05
2022-08-09T13:47:49.506Z,1.00
2022-08-09T13:50:30.329Z,0.90
2022-08-09T13:52:54.827Z,1.12
2022-08-09T13:55:30.407Z,1.90
2022-08-09T13:58:05.004Z,1.20
2022-08-09T14:00:50.630Z,0.98
2022-08-09T14:04:01.137Z,1.22
2022-08-09T14:05:57.259Z,1.12
2022-08-09T14:08:23.907Z,0.88
2022-08-09T14:10:59.600Z,0.90
2022-08-09T14:14:22.539Z,0.90
2022-08-09T14:16:11.937Z,1.00
2022-08-09T14:18:50.092Z,1.45
2022-08-09T14:21:29.511Z,1.00
2022-08-09T14:24:10.399Z,1.17
2022-08-09T14:26:41.365Z,1.30
2022-08-09T14:30:03.917Z,1.27
2022-08-09T14:31:55.535Z,1.47
2022-08-09T14:34:32.528Z,1.37
2022-08-09T14:37:08.525Z,1.65
2022-08-09T14:39:47.823Z,1.20
2022-08-09T14:42:30.950Z,1.50
2022-08-09T14:44:59.616Z,1.67
2022-08-09T14:47:45.270Z,1.30
2022-08-09T14:50:09.420Z,1.10
2022-08-09T14:52:50.009Z,1.90
2022-08-09T14:55:20.980Z,1.35
2022-08-09T14:57:56.217Z,1.30
2022-08-09T15:00:31.215Z,1.80
2022-08-09T15:03:06.963Z,1.90
2022-08-09T15:05:52.376Z,2.22
2022-08-09T15:08:19.725Z,2.15
2022-08-09T15:11:00.964Z,1.87
2022-08-09T15:13:55.957Z,1.77
2022-08-09T15:16:11.277Z,2.15
2022-08-09T15:18:49.086Z,1.80
2022-08-09T15:22:01.889Z,1.80
2022-08-09T15:24:05.935Z,2.10
2022-08-09T15:26:31.922Z,2.20
2022-08-09T15:29:06.376Z,2.05
2022-08-09T15:31:42.469Z,2.00
2022-08-09T15:34:34.486Z,2.52
2022-08-09T15:36:58.298Z,2.33
2022-08-09T15:39:34.442Z,2.40
2022-08-09T15:42:10.243Z,2.72
2022-08-09T15:44:43.590Z,2.20
2022-08-09T15:47:22.886Z,1.90
2022-08-09T15:52:38.083Z,2.12
2022-08-09T15:55:18.394Z,1.50
2022-08-09T15:57:53.358Z,1.35
2022-08-09T16:00:27.765Z,1.50
2022-08-09T16:03:01.076Z,1.55
2022-08-09T16:05:54.667Z,1.37
2022-08-09T16:08:15.165Z,1.92
2022-08-09T16:10:55.773Z,1.40
2022-08-09T16:14:04.709Z,1.40
2022-08-09T16:16:10.740Z,1.40
2022-08-09T16:18:36.801Z,1.65
2022-08-09T16:21:11.970Z,1.60
2022-08-09T16:23:54.873Z,1.47
2022-08-09T16:26:33.827Z,1.30
2022-08-09T16:28:58.783Z,1.85
2022-08-09T16:32:10.463Z,1.40
2022-08-09T16:34:08.276Z,2.35
2022-08-09T16:36:41.925Z,1.22
2022-08-09T16:39:21.210Z,1.60
2022-08-09T16:42:04.035Z,1.92
2022-08-09T16:44:35.709Z,1.35
2022-08-09T16:48:42.405Z,1.75
2022-08-09T16:52:32.227Z,2.10
2022-08-09T16:55:08.055Z,2.22
2022-08-09T17:00:23.778Z,2.70
2022-08-09T17:02:58.171Z,3.15
2022-08-09T17:06:08.403Z,3.12
2022-08-09T17:08:46.351Z,3.30
2022-08-09T17:10:43.580Z,2.65
2022-08-09T17:13:20.461Z,2.92
2022-08-09T17:16:02.310Z,2.47
2022-08-09T17:18:36.078Z,3.27
2022-08-09T17:21:12.408Z,3.62
2022-08-09T17:24:27.222Z,2.60
2022-08-09T17:26:38.301Z,2.92
2022-08-09T17:32:02.330Z,2.92
2022-08-09T17:35:02.106Z,4.05
2022-08-09T17:38:02.150Z,3.08
2022-08-09T17:40:16.993Z,2.55
2022-08-09T17:42:47.781Z,2.92
2022-08-09T17:45:37.411Z,2.45
2022-08-09T17:48:02.816Z,2.98
2022-08-09T17:50:37.033Z,3.40
2022-08-09T17:53:19.695Z,2.70
2022-08-09T17:55:49.379Z,2.67
2022-08-09T17:58:19.229Z,3.72
2022-08-09T18:00:54.978Z,3.37
2022-08-09T18:03:30.372Z,3.65
2022-08-09T18:06:04.810Z,3.37
2022-08-09T18:08:40.996Z,3.40
2022-08-09T18:11:16.381Z,3.62
2022-08-09T18:13:58.956Z,3.50
2022-08-09T18:16:29.348Z,3.30
2022-08-09T18:20:54.790Z,3.95
2022-08-09T18:21:57.658Z,3.75
2022-08-09T18:24:40.852Z,3.00
2022-08-09T18:28:02.211Z,3.45
2022-08-09T18:30:34.624Z,3.17
2022-08-09T18:32:36.107Z,3.98
2022-08-09T18:35:11.894Z,4.20
2022-08-09T18:37:54.888Z,3.50
2022-08-09T18:40:26.792Z,3.70
2022-08-09T18:42:59.749Z,4.20
2022-08-09T18:46:46.993Z,4.28
2022-08-09T18:48:10.181Z,3.77
2022-08-09T18:50:47.285Z,4.20
2022-08-09T18:53:25.832Z,3.87
2022-08-09T18:56:05.465Z,4.25
2022-08-09T18:59:01.039Z,4.10
2022-08-09T19:12:10.968Z,4.62
2022-08-09T19:14:46.234Z,4.35
2022-08-09T19:18:17.150Z,4.62
2022-08-09T19:21:00.617Z,4.37
2022-08-09T19:31:45.228Z,4.85
2022-08-09T19:34:39.361Z,6.00
2022-08-09T19:37:03.771Z,4.92
2022-08-09T19:40:04.769Z,4.65
2022-08-09T19:42:28.258Z,4.12
2022-08-09T19:45:40.451Z,4.78
2022-08-09T19:49:00.662Z,5.37
2022-08-09T19:51:31.356Z,4.87
2022-08-09T19:57:01.808Z,5.87
2022-08-09T20:00:05.453Z,5.15
2022-08-09T20:05:25.036Z,5.08
2022-08-09T20:20:27.207Z,5.07
2022-08-09T20:22:56.473Z,4.55
2022-08-09T20:28:47.590Z,5.90
2022-08-09T20:31:16.791Z,5.67
2022-08-09T20:33:58.429Z,4.47
2022-08-09T20:36:41.593Z,5.20
2022-08-09T20:39:29.175Z,5.53
2022-08-09T20:41:52.003Z,4.47
2022-08-09T20:44:29.594Z,4.42
2022-08-09T20:47:03.767Z,4.87
2022-08-09T20:49:38.513Z,5.05
2022-08-09T20:52:14.760Z,5.03
2022-08-09T20:54:52.606Z,5.45
2022-08-09T20:57:32.174Z,4.43
2022-08-09T21:00:20.353Z,4.45
2022-08-09T21:02:37.868Z,4.85
2022-08-09T21:05:52.813Z,5.85
2022-08-09T21:07:56.208Z,4.78
2022-08-09T21:10:30.424Z,4.37
2022-08-09T21:13:04.343Z,4.87
2022-08-09T21:15:38.178Z,4.15
2022-08-09T21:18:29.636Z,4.10
2022-08-09T21:20:54.033Z,4.30
2022-08-09T21:23:36.106Z,4.72
2022-08-09T21:25:59.679Z,4.60
2022-08-09T21:28:36.460Z,4.28
2022-08-09T21:31:17.766Z,4.42
2022-08-09T21:33:49.428Z,5.03
2022-08-09T21:36:28.841Z,4.67
2022-08-09T21:39:07.383Z,4.40
2022-08-09T21:42:03.782Z,4.35
2022-08-09T21:44:33.992Z,4.70
2022-08-09T21:46:54.611Z,4.05
2022-08-09T21:49:29.325Z,4.75
2022-08-09T21:52:04.382Z,5.60
2022-08-09T21:54:46.244Z,5.40
2022-08-09T21:57:25.544Z,5.28
2022-08-09T21:59:54.825Z,4.58
2022-08-09T22:02:35.952Z,5.22
2022-08-09T22:05:16.788Z,4.97
2022-08-09T22:07:41.730Z,5.35
2022-08-09T22:10:13.788Z,4.35
2022-08-09T22:12:49.993Z,4.55
2022-08-09T22:15:34.625Z,4.70
2022-08-09T22:18:01.970Z,4.47
2022-08-09T22:20:35.587Z,5.25
2022-08-09T22:23:10.799Z,5.60
2022-08-09T22:26:06.708Z,4.42
2022-08-09T22:28:21.052Z,4.20
2022-08-09T22:30:55.098Z,5.05
2022-08-09T22:33:37.558Z,5.53
2022-08-09T22:38:39.822Z,5.33
2022-08-09T22:41:14.529Z,5.03
2022-08-09T22:44:01.642Z,5.30
2022-08-09T22:48:11.989Z,5.08
2022-08-09T22:48:59.920Z,5.22
2022-08-09T22:51:34.176Z,4.70
2022-08-09T22:54:10.897Z,4.35
2022-08-09T22:56:45.377Z,4.55
2022-08-09T22:59:55.587Z,4.35
2022-08-09T23:01:58.082Z,4.42
2022-08-09T23:04:32.561Z,4.05
2022-08-09T23:07:31.027Z,4.12
2022-08-09T23:10:02.886Z,3.27
2022-08-09T23:12:36.059Z,4.53
2022-08-09T23:15:10.604Z,4.30
2022-08-09T23:17:43.706Z,4.47
2022-08-09T23:20:16.788Z,4.17
2022-08-09T23:22:50.028Z,3.87
2022-08-09T23:25:23.200Z,3.72
2022-08-09T23:28:14.018Z,3.50
2022-08-09T23:30:30.968Z,3.40
2022-08-09T23:33:03.891Z,2.92
2022-08-09T23:36:04.367Z,3.25
2022-08-09T23:38:14.187Z,3.33
2022-08-09T23:40:47.389Z,3.55
2022-08-09T23:43:20.616Z,3.47
2022-08-09T23:45:53.790Z,3.35
2022-08-09T23:48:26.941Z,3.52
2022-08-09T23:51:00.342Z,3.30
2022-08-09T23:53:37.848Z,3.20
2022-08-09T23:56:08.804Z,3.98
2022-08-09T23:58:42.103Z,4.15
